Time;durP1;ratioP1;P1;durP2;ratioP2;P2;SDS_P1;SDS_P2;PMS_P1;PMS_P2;Temp;Humidity;BMP_temperature;BMP_pressure;BME280_temperature;BME280_humidity;BME280_pressure;Samples;Min_cycle;Max_cycle;Signal;HPM_P1;HPM_P2
2022/06/04 00:00:49;;;;;;;8.80;3.13;;;20.70;99.90;;;;;;5049366;28;20052;-70
2022/06/04 00:03:53;;;;;;;7.35;3.20;;;20.60;99.90;;;;;;5051733;28;20334;-70
2022/06/04 00:06:57;;;;;;;5.72;3.20;;;20.50;99.90;;;;;;5053550;28;20047;-70
2022/06/04 00:16:57;;;;;;;9.48;3.60;;;20.50;99.90;;;;;;5051621;28;20044;-70
2022/06/04 00:20:03;;;;;;;7.22;3.20;;;20.40;99.90;;;;;;5052910;28;20407;-70
2022/06/04 00:23:08;;;;;;;9.07;3.28;;;20.50;99.90;;;;;;5052901;28;20052;-70
2022/06/04 00:26:16;;;;;;;6.25;3.33;;;20.50;99.90;;;;;;5052236;28;20234;-70
2022/06/04 00:29:20;;;;;;;6.18;3.20;;;20.50;99.90;;;;;;5053424;28;20044;-70
2022/06/04 00:32:24;;;;;;;8.55;2.85;;;20.50;99.90;;;;;;5052978;28;20044;-70
2022/06/04 00:35:28;;;;;;;8.68;2.92;;;20.60;99.90;;;;;;5052072;28;20055;-70
2022/06/04 00:38:34;;;;;;;4.72;2.65;;;20.60;99.90;;;;;;5052306;28;20044;-70
2022/06/04 00:42:02;;;;;;;12.77;2.95;;;20.70;99.90;;;;;;5052583;28;20040;-71
2022/06/04 00:45:23;;;;;;;5.53;3.60;;;20.50;99.90;;;;;;5052403;28;20060;-70
2022/06/04 00:48:27;;;;;;;6.95;3.03;;;20.30;99.90;;;;;;5051879;28;20052;-70
2022/06/04 00:51:31;;;;;;;8.35;3.30;;;20.20;99.90;;;;;;5053103;28;20040;-70
2022/06/04 00:54:36;;;;;;;10.30;2.65;;;20.10;99.90;;;;;;5052242;28;20040;-70
2022/06/04 00:57:57;;;;;;;5.15;2.25;;;20.10;99.90;;;;;;5052227;28;20052;-70
2022/06/04 01:01:20;;;;;;;6.65;2.30;;;20.10;99.90;;;;;;5052389;28;20048;-69
2022/06/04 01:04:47;;;;;;;7.88;2.65;;;20.20;99.90;;;;;;5052570;28;20060;-69
2022/06/04 01:08:03;;;;;;;5.55;2.30;;;20.20;99.90;;;;;;5051688;28;20048;-69
2022/06/04 01:11:22;;;;;;;9.13;2.90;;;20.20;99.90;;;;;;5052231;28;20048;-70
2022/06/04 01:14:48;;;;;;;6.60;2.58;;;20.20;99.90;;;;;;5051678;28;20040;-70
2022/06/04 01:18:00;;;;;;;9.82;3.83;;;20.10;99.90;;;;;;5051609;28;20388;-70
2022/06/04 01:21:30;;;;;;;7.93;3.50;;;20.00;99.90;;;;;;5051553;28;20056;-70
2022/06/04 01:25:12;;;;;;;7.28;4.00;;;19.80;99.90;;;;;;5051375;28;20036;-70
2022/06/04 01:28:17;;;;;;;12.68;3.70;;;19.40;99.90;;;;;;5030213;28;20048;-70
2022/06/04 01:31:31;;;;;;;6.35;3.20;;;19.20;99.90;;;;;;5052208;28;20040;-70
2022/06/04 01:35:03;;;;;;;11.07;3.42;;;19.10;99.90;;;;;;5050691;28;20056;-69
2022/06/04 01:38:12;;;;;;;7.53;3.85;;;19.00;99.90;;;;;;5051168;28;20048;-69
2022/06/04 01:41:28;;;;;;;6.50;3.80;;;19.00;99.90;;;;;;5051646;28;20044;-69
2022/06/04 01:44:37;;;;;;;7.07;3.33;;;19.20;99.90;;;;;;5050166;28;20036;-70
2022/06/04 01:47:45;;;;;;;7.82;3.50;;;19.30;99.90;;;;;;5049525;28;20048;-70
2022/06/04 01:50:54;;;;;;;10.02;4.20;;;19.40;99.90;;;;;;5050982;28;20040;-70
2022/06/04 01:54:06;;;;;;;7.07;3.90;;;19.30;99.90;;;;;;5031639;28;20057;-70
2022/06/04 01:57:18;;;;;;;8.77;4.03;;;19.00;99.90;;;;;;5048444;28;20639;-70
2022/06/04 02:00:37;;;;;;;18.50;3.83;;;18.80;99.90;;;;;;5050380;28;20039;-70
2022/06/04 02:04:04;;;;;;;7.90;4.20;;;18.60;99.90;;;;;;5051683;28;20494;-70
2022/06/04 02:07:32;;;;;;;8.65;4.20;;;18.60;99.90;;;;;;5052164;28;20036;-70
2022/06/04 02:10:55;;;;;;;7.78;3.83;;;18.60;99.90;;;;;;5049720;28;20068;-69
2022/06/04 02:14:06;;;;;;;7.07;3.20;;;18.60;99.90;;;;;;5051382;28;20052;-69
2022/06/04 02:17:13;;;;;;;8.85;3.85;;;18.70;99.90;;;;;;5051077;28;20044;-69
2022/06/04 02:20:17;;;;;;;10.20;3.40;;;18.80;99.90;;;;;;5048717;28;20044;-70
2022/06/04 02:23:21;;;;;;;7.55;3.58;;;18.80;99.90;;;;;;5050628;28;20068;-70
2022/06/04 02:26:26;;;;;;;5.40;2.90;;;19.00;99.90;;;;;;5049949;28;20514;-70
2022/06/04 02:29:30;;;;;;;8.15;3.20;;;19.10;99.90;;;;;;5050948;28;20048;-70
2022/06/04 02:32:57;;;;;;;6.90;3.17;;;19.40;99.90;;;;;;5050251;28;20051;-70
2022/06/04 02:36:04;;;;;;;5.50;2.90;;;19.50;99.90;;;;;;5050468;28;20406;-70
2022/06/04 02:39:28;;;;;;;7.68;3.20;;;19.80;99.90;;;;;;5030852;28;20044;-69
2022/06/04 02:43:09;;;;;;;10.68;3.30;;;19.90;99.90;;;;;;5046775;28;20474;-70
2022/06/04 02:46:26;;;;;;;7.05;2.85;;;19.90;99.90;;;;;;5049401;28;20418;-70
2022/06/04 02:49:38;;;;;;;8.75;2.85;;;20.00;99.90;;;;;;5050412;28;20044;-70
2022/06/04 02:52:45;;;;;;;9.40;2.80;;;20.10;99.90;;;;;;5050637;28;20486;-70
2022/06/04 02:56:00;;;;;;;7.97;2.80;;;20.10;99.90;;;;;;5045489;28;20055;-70
2022/06/04 02:59:09;;;;;;;7.57;2.70;;;20.10;99.90;;;;;;5049350;28;20036;-70
2022/06/04 03:02:15;;;;;;;6.65;2.25;;;19.90;99.90;;;;;;5050001;28;20577;-71
2022/06/04 03:05:23;;;;;;;6.95;3.00;;;19.90;99.90;;;;;;5050028;28;20494;-71
2022/06/04 03:08:31;;;;;;;9.88;3.47;;;19.80;99.90;;;;;;5049762;28;20040;-71
2022/06/04 03:11:43;;;;;;;9.73;3.47;;;19.70;99.90;;;;;;5050028;28;20392;-70
2022/06/04 03:14:47;;;;;;;8.52;3.33;;;19.70;99.90;;;;;;5030578;28;20044;-70
2022/06/04 03:17:51;;;;;;;6.65;3.70;;;19.60;99.90;;;;;;5047518;28;20048;-70
2022/06/04 03:20:55;;;;;;;8.73;3.38;;;19.60;99.90;;;;;;5049745;28;20067;-70
2022/06/04 03:23:59;;;;;;;10.02;2.88;;;19.60;99.90;;;;;;5049886;28;20040;-70
2022/06/04 03:27:03;;;;;;;9.80;3.20;;;19.60;99.90;;;;;;5049519;28;20048;-70
2022/06/04 03:30:09;;;;;;;8.65;3.28;;;19.60;99.90;;;;;;5049681;28;20052;-70
2022/06/04 03:33:13;;;;;;;6.55;2.78;;;19.50;99.90;;;;;;5049474;28;20040;-70
2022/06/04 03:36:17;;;;;;;5.28;3.15;;;19.40;99.90;;;;;;5046269;28;20400;-70
2022/06/04 03:39:21;;;;;;;11.38;3.15;;;19.30;99.90;;;;;;5052859;28;20052;-70
2022/06/04 03:42:25;;;;;;;9.02;3.35;;;19.20;99.90;;;;;;5054320;28;20122;-71
2022/06/04 03:45:29;;;;;;;7.43;3.30;;;19.20;99.90;;;;;;5052321;28;20124;-70
2022/06/04 03:48:34;;;;;;;7.38;3.38;;;19.10;99.90;;;;;;5053092;28;20032;-71
2022/06/04 03:51:39;;;;;;;5.53;3.60;;;19.10;99.90;;;;;;5053504;28;20040;-70
2022/06/04 03:54:52;;;;;;;4.40;3.15;;;19.00;99.90;;;;;;5053946;28;20056;-70
2022/06/04 03:57:56;;;;;;;7.57;3.42;;;18.90;99.90;;;;;;5052455;28;20044;-70
2022/06/04 04:01:11;;;;;;;6.00;2.90;;;19.00;99.90;;;;;;5053394;28;20419;-70
2022/06/04 04:04:15;;;;;;;8.63;3.10;;;19.10;99.90;;;;;;5054218;28;20052;-70
2022/06/04 04:07:19;;;;;;;6.60;3.10;;;19.20;99.90;;;;;;5052363;28;20036;-70
2022/06/04 04:10:26;;;;;;;9.43;3.95;;;19.40;99.90;;;;;;5052788;28;20127;-70
2022/06/04 04:13:30;;;;;;;7.97;3.38;;;19.40;99.90;;;;;;5053349;28;20044;-70
2022/06/04 04:16:34;;;;;;;7.47;3.17;;;19.30;99.90;;;;;;5051310;28;20459;-70
2022/06/04 04:19:38;;;;;;;13.90;3.55;;;19.30;99.90;;;;;;5052390;28;20052;-70
2022/06/04 04:22:43;;;;;;;5.80;3.15;;;19.50;99.90;;;;;;5053009;28;20044;-70
2022/06/04 04:25:47;;;;;;;9.95;3.20;;;19.70;99.90;;;;;;5052609;28;20061;-70
2022/06/04 04:28:52;;;;;;;6.30;3.03;;;20.00;99.90;;;;;;5052291;28;20048;-70
2022/06/04 04:31:55;;;;;;;6.68;3.00;;;20.30;99.90;;;;;;5052735;28;20383;-71
2022/06/04 04:35:00;;;;;;;9.63;3.03;;;20.90;99.90;;;;;;5052712;28;20495;-70
2022/06/04 04:38:05;;;;;;;7.03;2.90;;;21.40;99.90;;;;;;5051780;28;20044;-71
2022/06/04 04:41:14;;;;;;;8.82;3.30;;;21.30;99.90;;;;;;5052192;28;20051;-70
2022/06/04 04:44:18;;;;;;;7.13;3.42;;;21.10;99.90;;;;;;5051975;28;20040;-70
2022/06/04 04:47:22;;;;;;;7.38;2.83;;;20.80;99.90;;;;;;5050989;28;20379;-71
2022/06/04 04:50:32;;;;;;;8.15;3.50;;;20.90;99.90;;;;;;5051335;28;20068;-71
2022/06/04 04:53:37;;;;;;;6.13;3.28;;;21.00;99.90;;;;;;5032796;28;20412;-71
2022/06/04 04:56:41;;;;;;;7.80;3.10;;;21.00;99.90;;;;;;5046115;28;20036;-70
2022/06/04 04:59:45;;;;;;;8.27;3.70;;;20.90;99.90;;;;;;5051679;28;20537;-71
2022/06/04 05:02:49;;;;;;;7.57;3.15;;;20.90;99.90;;;;;;5052490;28;20056;-71
2022/06/04 05:06:02;;;;;;;6.65;3.17;;;20.80;99.90;;;;;;5048577;28;20048;-71
2022/06/04 05:09:06;;;;;;;5.78;3.55;;;20.90;99.90;;;;;;5051404;28;20047;-70
2022/06/04 05:12:10;;;;;;;9.32;4.15;;;21.00;99.90;;;;;;5051810;28;20052;-71
2022/06/04 05:15:14;;;;;;;8.90;3.70;;;21.00;99.90;;;;;;5051716;28;20044;-71
2022/06/04 05:18:18;;;;;;;6.38;3.80;;;21.00;99.90;;;;;;5051036;28;20048;-71
2022/06/04 05:21:24;;;;;;;9.55;3.53;;;21.00;99.90;;;;;;5051557;28;20388;-70
2022/06/04 05:24:31;;;;;;;9.38;3.38;;;21.10;99.90;;;;;;5031981;28;20037;-71
2022/06/04 05:27:36;;;;;;;5.90;3.47;;;21.00;99.90;;;;;;5047824;28;20051;-71
2022/06/04 05:30:40;;;;;;;7.55;3.17;;;21.30;99.90;;;;;;5051407;28;20400;-71
2022/06/04 05:33:44;;;;;;;7.68;2.75;;;21.80;99.90;;;;;;5032108;28;20263;-70
2022/06/04 05:36:48;;;;;;;6.05;3.25;;;22.60;99.90;;;;;;5049499;28;20048;-70
2022/06/04 05:39:52;;;;;;;13.55;5.30;;;23.70;99.90;;;;;;5050686;28;20525;-70
2022/06/04 05:42:56;;;;;;;39.67;20.13;;;24.70;99.90;;;;;;5051956;28;20052;-70
2022/06/04 05:46:06;;;;;;;51.10;29.38;;;25.20;99.90;;;;;;5050445;28;20048;-71
2022/06/04 05:49:12;;;;;;;14.43;8.30;;;25.60;99.90;;;;;;5050674;28;20212;-70
2022/06/04 05:52:16;;;;;;;10.15;3.17;;;25.50;99.90;;;;;;5051493;28;20060;-70
2022/06/04 05:55:22;;;;;;;5.60;2.88;;;25.60;99.90;;;;;;5049144;28;20040;-70
2022/06/04 05:58:26;;;;;;;13.48;3.60;;;26.60;99.60;;;;;;5050273;28;20052;-71
2022/06/04 06:01:32;;;;;;;10.32;3.80;;;27.20;98.50;;;;;;5050583;28;20044;-71
2022/06/04 06:04:36;;;;;;;9.00;3.03;;;25.30;99.10;;;;;;5050937;28;20048;-71
2022/06/04 06:07:40;;;;;;;9.52;3.10;;;24.70;99.90;;;;;;5050412;28;20036;-72
2022/06/04 06:10:44;;;;;;;9.20;2.78;;;25.60;99.90;;;;;;5051293;28;20072;-71
2022/06/04 06:13:51;;;;;;;4.35;2.58;;;25.70;99.90;;;;;;5031463;28;20380;-71
2022/06/04 06:16:55;;;;;;;12.93;3.30;;;26.50;99.90;;;;;;5046513;28;20035;-71
2022/06/04 06:20:00;;;;;;;8.25;2.47;;;26.90;99.90;;;;;;5050506;28;20040;-71
2022/06/04 06:23:04;;;;;;;3.90;3.05;;;26.40;99.90;;;;;;5050955;28;20052;-71
2022/06/04 06:26:17;;;;;;;8.00;3.80;;;25.60;99.90;;;;;;5049610;28;20044;-71
2022/06/04 06:29:24;;;;;;;6.28;2.95;;;24.70;99.90;;;;;;5050554;28;20349;-71
2022/06/04 06:32:27;;;;;;;11.15;3.25;;;24.50;99.90;;;;;;5050926;28;20051;-71
2022/06/04 06:35:31;;;;;;;6.30;3.03;;;25.30;99.90;;;;;;5047889;28;20044;-71
2022/06/04 06:38:37;;;;;;;9.90;2.90;;;26.90;99.90;;;;;;5049993;28;20048;-71
2022/06/04 06:41:42;;;;;;;7.20;2.40;;;27.90;99.90;;;;;;5050567;28;20399;-72
2022/06/04 06:44:46;;;;;;;6.15;2.58;;;29.30;98.80;;;;;;5049789;28;20078;-71
2022/06/04 06:47:50;;;;;;;6.13;3.28;;;30.70;96.30;;;;;;5048926;28;20044;-71
2022/06/04 06:50:54;;;;;;;4.40;2.30;;;30.80;94.90;;;;;;5050106;28;20044;-71
2022/06/04 06:53:58;;;;;;;7.68;2.30;;;30.20;94.20;;;;;;5030653;28;20056;-71
2022/06/04 06:57:05;;;;;;;6.95;2.00;;;31.10;93.00;;;;;;5044640;28;20055;-71
2022/06/04 07:00:10;;;;;;;7.18;1.90;;;31.90;92.20;;;;;;5049715;28;20048;-72
2022/06/04 07:03:15;;;;;;;5.63;2.30;;;32.80;91.10;;;;;;5049831;28;20044;-72
2022/06/04 07:06:29;;;;;;;4.03;2.33;;;32.60;90.70;;;;;;5048884;28;20661;-72
2022/06/04 07:09:38;;;;;;;7.78;2.50;;;32.40;91.00;;;;;;5049403;28;20044;-72
2022/06/04 07:12:44;;;;;;;10.07;2.45;;;32.80;90.70;;;;;;5049574;28;20494;-72
2022/06/04 07:15:49;;;;;;;10.45;3.03;;;33.90;89.70;;;;;;5049638;28;20044;-72
2022/06/04 07:18:53;;;;;;;8.15;2.20;;;34.00;88.10;;;;;;5049871;28;20372;-72
2022/06/04 07:21:57;;;;;;;5.68;2.00;;;32.50;90.40;;;;;;5050066;28;20055;-72
2022/06/04 07:25:01;;;;;;;7.32;2.58;;;31.90;90.70;;;;;;5048679;28;20321;-72
2022/06/04 07:28:05;;;;;;;7.55;2.75;;;31.30;91.80;;;;;;5046399;28;20032;-71
2022/06/04 07:31:10;;;;;;;4.30;2.42;;;32.50;91.20;;;;;;5041215;28;20399;-72
2022/06/04 07:34:15;;;;;;;10.02;2.28;;;33.90;90.40;;;;;;5030046;28;20049;-72
2022/06/04 07:37:18;;;;;;;8.80;2.50;;;33.30;90.10;;;;;;5043868;28;20052;-72
2022/06/04 07:40:23;;;;;;;3.72;2.13;;;35.00;88.40;;;;;;5049764;28;20498;-72
2022/06/04 07:43:27;;;;;;;9.68;3.15;;;34.70;88.40;;;;;;5030060;28;20416;-72
2022/06/04 07:46:32;;;;;;;7.10;2.55;;;34.80;88.40;;;;;;5045553;28;20056;-72
2022/06/04 07:49:36;;;;;;;6.50;2.70;;;33.70;89.20;;;;;;5049679;28;20052;-72
2022/06/04 07:52:40;;;;;;;9.60;3.00;;;34.10;89.10;;;;;;5030217;28;20335;-72
2022/06/04 07:55:44;;;;;;;9.77;2.38;;;34.10;87.60;;;;;;5047977;28;20040;-73
2022/06/04 07:58:48;;;;;;;6.50;2.40;;;35.90;84.60;;;;;;5048732;28;20330;-72
2022/06/04 08:01:52;;;;;;;8.00;2.67;;;35.20;85.30;;;;;;5049685;28;20048;-72
2022/06/04 08:04:58;;;;;;;9.35;2.92;;;35.70;86.60;;;;;;5045133;28;20053;-72
2022/06/04 08:08:04;;;;;;;8.18;3.60;;;33.50;90.00;;;;;;5048204;28;20057;-72
2022/06/04 08:14:30;;;;;;;8.90;2.47;;;32.90;89.50;;;;;;5029752;28;20037;-72
2022/06/04 08:17:34;;;;;;;7.05;2.50;;;32.10;90.30;;;;;;5043382;28;20056;-72
2022/06/04 08:20:43;;;;;;;10.43;2.35;;;33.30;90.40;;;;;;5049060;28;20064;-72
2022/06/04 08:23:48;;;;;;;7.70;2.22;;;34.00;88.20;;;;;;5030284;28;20036;-72
2022/06/04 08:26:58;;;;;;;9.02;2.90;;;36.00;86.00;;;;;;5049062;28;20047;-71
2022/06/04 08:30:03;;;;;;;6.03;1.90;;;37.80;83.60;;;;;;5052530;28;20044;-72
2022/06/04 08:33:07;;;;;;;5.45;2.00;;;36.80;82.40;;;;;;5053425;28;20112;-72
2022/06/04 08:36:13;;;;;;;9.95;2.47;;;36.90;81.60;;;;;;5052346;28;20052;-72
2022/06/04 08:39:17;;;;;;;8.70;2.25;;;36.50;83.20;;;;;;5052069;28;20367;-71
2022/06/04 08:42:39;;;;;;;4.15;1.90;;;37.80;82.30;;;;;;5053016;28;20044;-72
2022/06/04 08:45:44;;;;;;;10.52;2.50;;;40.10;79.60;;;;;;5052097;28;20044;-71
2022/06/04 08:48:48;;;;;;;6.68;2.70;;;41.10;78.20;;;;;;5051644;28;20048;-72
2022/06/04 08:51:53;;;;;;;6.13;1.92;;;40.70;78.20;;;;;;5052341;28;20048;-72
2022/06/04 08:58:42;;;;;;;11.45;2.35;;;38.10;79.80;;;;;;5051359;28;20048;-72
2022/06/04 09:01:53;;;;;;;8.32;2.42;;;34.40;85.30;;;;;;5051331;28;20048;-72
2022/06/04 09:05:31;;;;;;;7.95;2.63;;;32.30;89.10;;;;;;5052650;28;20044;-72
2022/06/04 09:08:48;;;;;;;10.55;2.30;;;33.10;89.10;;;;;;5052831;28;20047;-70
2022/06/04 09:12:18;;;;;;;5.93;2.33;;;34.60;86.60;;;;;;5051428;28;20044;-71
2022/06/04 09:15:29;;;;;;;7.07;2.30;;;34.30;87.10;;;;;;5051300;28;20062;-71
2022/06/04 09:18:35;;;;;;;9.93;2.40;;;34.10;84.60;;;;;;5051851;28;20040;-72
2022/06/04 09:21:40;;;;;;;6.57;2.40;;;35.10;84.80;;;;;;5051619;28;20051;-72
2022/06/04 09:24:45;;;;;;;11.10;2.78;;;36.10;82.90;;;;;;5051047;28;20127;-73
2022/06/04 09:27:52;;;;;;;7.57;2.38;;;36.90;82.60;;;;;;5050978;28;20132;-72
2022/06/04 09:31:10;;;;;;;5.93;2.72;;;35.00;80.40;;;;;;5032015;28;20051;-73
2022/06/04 09:34:22;;;;;;;8.48;2.78;;;34.30;82.60;;;;;;5050410;28;20123;-72
2022/06/04 09:37:26;;;;;;;6.03;2.20;;;36.70;80.50;;;;;;5049953;28;20051;-71
2022/06/04 09:40:33;;;;;;;7.72;2.47;;;38.80;79.60;;;;;;5052026;28;20087;-72
2022/06/04 09:43:37;;;;;;;16.85;2.67;;;40.60;78.00;;;;;;5047889;28;20040;-73
2022/06/04 09:46:46;;;;;;;8.82;2.55;;;39.60;75.70;;;;;;5050118;28;20040;-71
2022/06/04 09:49:54;;;;;;;7.45;2.85;;;41.10;74.30;;;;;;5051528;28;20067;-71
2022/06/04 09:53:19;;;;;;;12.15;2.10;;;41.10;73.60;;;;;;5051576;28;20093;-72
2022/06/04 09:56:34;;;;;;;7.47;2.25;;;42.00;72.70;;;;;;5050092;28;20047;-71
2022/06/04 09:59:38;;;;;;;11.13;2.40;;;41.60;72.30;;;;;;5050474;28;20391;-72
2022/06/04 10:02:55;;;;;;;7.20;2.40;;;42.00;71.00;;;;;;5051355;28;20068;-71
2022/06/04 10:06:07;;;;;;;16.83;2.80;;;40.50;69.60;;;;;;5050625;28;20490;-72
2022/06/04 10:16:18;;;;;;;20.27;2.65;;;41.00;68.50;;;;;;5050712;28;20052;-72
2022/06/04 10:19:23;;;;;;;7.93;2.15;;;39.20;69.10;;;;;;5045047;28;20040;-72
2022/06/04 10:22:28;;;;;;;8.25;2.85;;;40.30;67.60;;;;;;5050083;28;20044;-72
2022/06/04 10:26:00;;;;;;;16.13;2.53;;;40.60;69.50;;;;;;5050855;28;20486;-70
2022/06/04 10:29:19;;;;;;;15.80;2.63;;;40.40;67.10;;;;;;5032309;28;20036;-72
2022/06/04 10:32:48;;;;;;;17.70;3.20;;;39.80;67.10;;;;;;5047997;28;20388;-72
2022/06/04 10:36:21;;;;;;;12.82;2.70;;;39.70;69.90;;;;;;5049954;28;20052;-71
2022/06/04 10:39:43;;;;;;;13.00;2.40;;;37.50;70.30;;;;;;5050453;28;20491;-72
2022/06/04 10:43:03;;;;;;;8.85;2.33;;;38.40;70.20;;;;;;5030583;28;20392;-71
2022/06/04 10:46:48;;;;;;;16.80;2.90;;;37.60;69.40;;;;;;5049661;28;20498;-72
2022/06/04 10:50:20;;;;;;;14.57;2.58;;;39.30;69.10;;;;;;5044357;28;20056;-71
2022/06/04 10:53:36;;;;;;;12.15;3.15;;;39.80;67.50;;;;;;5049575;28;20040;-71
2022/06/04 10:56:49;;;;;;;10.57;2.58;;;39.10;67.50;;;;;;5050031;28;20391;-72
2022/06/04 11:00:12;;;;;;;10.63;2.42;;;40.30;68.10;;;;;;5049828;28;20503;-72
2022/06/04 11:03:27;;;;;;;19.00;3.20;;;41.60;65.70;;;;;;5049339;28;20048;-72
2022/06/04 11:06:37;;;;;;;16.35;3.10;;;41.70;65.70;;;;;;5048525;28;20048;-72
2022/06/04 11:09:42;;;;;;;24.58;3.65;;;41.50;65.40;;;;;;5030402;28;20523;-72
2022/06/04 11:12:46;;;;;;;16.55;2.78;;;37.50;66.50;;;;;;5047734;28;20391;-71
2022/06/04 11:16:24;;;;;;;9.98;3.80;;;37.60;67.50;;;;;;5049115;28;20047;-71
2022/06/04 11:20:09;;;;;;;11.73;2.70;;;37.50;68.00;;;;;;5050409;28;20047;-71
2022/06/04 11:23:30;;;;;;;15.73;3.53;;;37.30;67.80;;;;;;5039999;28;20048;-72
2022/06/04 11:26:53;;;;;;;14.27;2.92;;;36.50;70.50;;;;;;5048866;28;20055;-71
2022/06/04 11:29:58;;;;;;;14.98;3.03;;;37.30;67.50;;;;;;5048850;28;20506;-71
2022/06/04 11:33:20;;;;;;;13.32;3.10;;;38.00;68.90;;;;;;5049300;28;20044;-72
2022/06/04 11:36:46;;;;;;;14.45;2.47;;;39.10;67.60;;;;;;5029595;28;20049;-71
2022/06/04 11:39:52;;;;;;;13.40;2.83;;;38.40;68.50;;;;;;5049080;28;20044;-72
2022/06/04 11:42:59;;;;;;;14.38;3.25;;;39.70;66.70;;;;;;5049194;28;20051;-71
2022/06/04 11:46:16;;;;;;;10.88;2.88;;;40.10;66.30;;;;;;5049407;28;20052;-69
2022/06/04 11:49:23;;;;;;;15.93;3.53;;;37.60;66.80;;;;;;5049067;28;20048;-71
2022/06/04 11:52:32;;;;;;;19.08;3.40;;;37.20;68.40;;;;;;5048892;28;20057;-71
2022/06/04 11:56:08;;;;;;;14.25;3.67;;;36.20;70.60;;;;;;5049123;28;20036;-71
2022/06/04 11:59:45;;;;;;;14.82;3.33;;;37.50;70.50;;;;;;5051282;28;20048;-71
2022/06/04 12:02:59;;;;;;;20.33;3.63;;;36.90;69.40;;;;;;5053225;28;20394;-71
2022/06/04 12:06:30;;;;;;;22.85;3.60;;;36.90;69.80;;;;;;5052498;28;20040;-71
2022/06/04 12:09:41;;;;;;;22.23;3.53;;;35.80;72.20;;;;;;5052572;28;20396;-71
2022/06/04 12:12:58;;;;;;;14.50;2.88;;;35.60;68.20;;;;;;5053770;28;20040;-71
2022/06/04 12:16:17;;;;;;;14.75;3.58;;;35.00;70.80;;;;;;5050957;28;20040;-70
2022/06/04 12:27:21;;;;;;;26.45;4.32;;;37.80;70.60;;;;;;5052442;28;20056;-71
2022/06/04 12:30:40;;;;;;;26.90;4.50;;;36.20;71.70;;;;;;5053346;28;20036;-71
2022/06/04 12:33:52;;;;;;;20.90;3.47;;;36.20;69.30;;;;;;5048888;28;20059;-71
2022/06/04 12:36:56;;;;;;;20.35;3.63;;;36.20;70.60;;;;;;5051653;28;20048;-71
2022/06/04 12:40:16;;;;;;;17.45;3.20;;;35.80;70.40;;;;;;5052548;28;20035;-69
2022/06/04 12:43:48;;;;;;;16.08;3.05;;;34.90;71.30;;;;;;5032871;28;20037;-71
2022/06/04 12:46:55;;;;;;;18.10;4.03;;;35.60;71.50;;;;;;5045139;28;20040;-71
2022/06/04 12:50:04;;;;;;;19.40;3.17;;;35.90;70.90;;;;;;5051443;28;20037;-71
2022/06/04 12:53:22;;;;;;;13.27;2.92;;;36.30;71.00;;;;;;5052614;28;20047;-72
2022/06/04 12:56:38;;;;;;;16.45;3.47;;;37.30;70.70;;;;;;5051729;28;20036;-71
2022/06/04 12:59:46;;;;;;;24.48;3.83;;;37.90;70.80;;;;;;5052173;28;20043;-71
2022/06/04 13:03:04;;;;;;;17.10;3.88;;;37.80;70.40;;;;;;5052255;28;20044;-71
2022/06/04 13:06:46;;;;;;;17.27;3.10;;;37.70;70.30;;;;;;5052260;28;20059;-71
2022/06/04 13:10:06;;;;;;;20.40;3.28;;;37.30;71.20;;;;;;5049788;28;20056;-71
2022/06/04 13:13:19;;;;;;;17.33;3.42;;;36.80;71.60;;;;;;5051671;28;20036;-71
2022/06/04 13:16:27;;;;;;;17.33;3.22;;;37.00;71.40;;;;;;5039186;28;20392;-72
2022/06/04 13:19:50;;;;;;;10.45;3.00;;;37.10;71.00;;;;;;5032236;28;20044;-71
2022/06/04 13:23:10;;;;;;;17.80;3.25;;;36.70;70.70;;;;;;5052115;28;20040;-71
2022/06/04 13:26:28;;;;;;;10.18;2.83;;;36.60;70.80;;;;;;5050966;28;20044;-71
2022/06/04 13:29:34;;;;;;;13.48;3.42;;;36.80;70.20;;;;;;5051533;28;20048;-70
2022/06/04 13:32:39;;;;;;;18.20;3.45;;;37.30;71.70;;;;;;5052295;28;20051;-70
2022/06/04 13:35:47;;;;;;;10.27;2.60;;;37.30;69.50;;;;;;5051030;28;20095;-71
2022/06/04 13:38:55;;;;;;;19.52;3.33;;;37.40;70.00;;;;;;5051602;28;20403;-71
2022/06/04 13:42:11;;;;;;;18.38;4.32;;;37.60;70.10;;;;;;5051351;28;20044;-70
2022/06/04 13:45:33;;;;;;;23.77;3.85;;;37.00;70.30;;;;;;5050867;28;20494;-70
2022/06/04 13:48:48;;;;;;;14.77;3.45;;;35.30;72.70;;;;;;5050878;28;20494;-70
2022/06/04 13:52:17;;;;;;;18.85;3.70;;;35.30;72.50;;;;;;5051328;28;20043;-71
2022/06/04 13:55:26;;;;;;;21.73;4.20;;;35.60;72.90;;;;;;5051528;28;20047;-71
2022/06/04 13:58:48;;;;;;;13.52;3.25;;;36.50;71.70;;;;;;5050518;28;20391;-71
2022/06/04 14:01:58;;;;;;;19.75;3.45;;;36.80;70.30;;;;;;5050284;28;20506;-71
2022/06/04 14:08:46;;;;;;;22.57;4.60;;;36.20;72.10;;;;;;5050691;28;20036;-70
2022/06/04 14:12:05;;;;;;;21.88;3.85;;;36.50;72.30;;;;;;5050445;28;20056;-71
2022/06/04 14:15:30;;;;;;;25.30;4.40;;;35.00;72.60;;;;;;5050347;28;20051;-70
2022/06/04 14:18:56;;;;;;;19.63;4.00;;;35.00;71.70;;;;;;5051368;28;20044;-70
2022/06/04 14:22:03;;;;;;;22.20;4.03;;;35.30;71.40;;;;;;5030839;28;20055;-71
2022/06/04 14:25:26;;;;;;;22.88;4.07;;;35.60;71.60;;;;;;5046431;28;20040;-71
2022/06/04 14:28:59;;;;;;;31.30;4.88;;;35.80;71.50;;;;;;5050412;28;20052;-71
2022/06/04 14:32:29;;;;;;;21.88;4.50;;;36.00;72.60;;;;;;5051072;28;20502;-71
2022/06/04 14:35:38;;;;;;;20.25;3.92;;;35.20;74.70;;;;;;5051044;28;20044;-71
2022/06/04 14:38:43;;;;;;;21.63;4.78;;;35.50;72.20;;;;;;5049964;28;20395;-70
2022/06/04 14:42:32;;;;;;;18.60;4.00;;;35.10;73.80;;;;;;5049816;28;20051;-71
2022/06/04 14:45:54;;;;;;;16.60;4.30;;;34.90;73.40;;;;;;5050656;28;20047;-71
2022/06/04 14:49:05;;;;;;;27.92;4.03;;;34.80;73.80;;;;;;5050243;28;20064;-70
2022/06/04 14:52:28;;;;;;;31.67;5.35;;;35.00;72.50;;;;;;5049686;28;20040;-71
2022/06/04 14:55:54;;;;;;;23.65;4.38;;;35.30;72.20;;;;;;5049589;28;20055;-71
2022/06/04 14:59:04;;;;;;;27.42;4.35;;;35.60;72.00;;;;;;5050589;28;20072;-70
2022/06/04 15:02:21;;;;;;;24.05;3.90;;;35.20;74.20;;;;;;5050086;28;20056;-71
2022/06/04 15:05:33;;;;;;;15.98;3.45;;;35.40;73.80;;;;;;5048942;28;20412;-71
2022/06/04 15:09:08;;;;;;;15.88;3.30;;;35.20;72.40;;;;;;5049853;28;20048;-72
2022/06/04 15:12:40;;;;;;;22.70;4.18;;;35.20;71.90;;;;;;5050337;28;20507;-70
2022/06/04 15:16:10;;;;;;;17.60;3.63;;;35.10;72.50;;;;;;5030087;28;20048;-71
2022/06/04 15:19:48;;;;;;;16.33;3.83;;;35.40;75.30;;;;;;5047979;28;20040;-71
2022/06/04 15:23:20;;;;;;;22.20;3.85;;;35.50;72.30;;;;;;5049251;28;20040;-71
2022/06/04 15:26:25;;;;;;;;;;;35.80;72.40;;;;;;5049735;28;20048;-70
2022/06/04 15:33:54;;;;;;;27.42;4.00;;;34.40;74.60;;;;;;5041186;28;20048;-71
2022/06/04 15:37:12;;;;;;;20.90;3.67;;;34.20;72.20;;;;;;5048731;28;20043;-71
2022/06/04 15:40:23;;;;;;;25.70;4.20;;;34.00;74.50;;;;;;5049254;28;20048;-71
2022/06/04 15:43:35;;;;;;;22.77;4.47;;;34.40;73.80;;;;;;5050071;28;20207;-71
2022/06/04 15:46:45;;;;;;;25.77;3.60;;;34.70;72.90;;;;;;5048520;28;20040;-71
2022/06/04 15:56:45;;;;;;;18.42;3.47;;;33.70;73.80;;;;;;5049017;28;20370;-71
2022/06/04 15:59:58;;;;;;;20.13;3.80;;;33.70;73.50;;;;;;5049280;28;20060;-71
2022/06/04 16:03:33;;;;;;;18.70;3.97;;;34.00;74.60;;;;;;5048807;28;20518;-73
2022/06/04 16:06:47;;;;;;;17.85;4.13;;;34.10;74.40;;;;;;5048800;28;20060;-70
2022/06/04 16:10:08;;;;;;;21.10;3.80;;;33.90;72.10;;;;;;5029860;28;20036;-70
2022/06/04 16:13:21;;;;;;;22.05;4.43;;;34.30;72.90;;;;;;5044874;28;20044;-71
2022/06/04 16:17:14;;;;;;;18.45;3.83;;;34.20;73.50;;;;;;5048374;28;20040;-71
2022/06/04 16:20:24;;;;;;;20.17;3.60;;;33.90;73.50;;;;;;5046515;28;20052;-71
2022/06/04 16:23:58;;;;;;;18.33;4.53;;;33.80;73.40;;;;;;5050129;28;20056;-71
2022/06/04 16:27:03;;;;;;;23.08;4.38;;;33.50;73.90;;;;;;5048912;28;20387;-71
2022/06/04 16:30:26;;;;;;;21.00;3.80;;;33.30;75.10;;;;;;5048586;28;20388;-70
2022/06/04 16:33:49;;;;;;;23.40;4.40;;;33.30;76.50;;;;;;5048963;28;20044;-70
2022/06/04 16:36:57;;;;;;;21.13;4.18;;;33.60;75.50;;;;;;5049128;28;20044;-71
2022/06/04 16:40:03;;;;;;;22.75;3.83;;;34.10;76.10;;;;;;5048848;28;20052;-71
2022/06/04 16:43:11;;;;;;;20.02;3.85;;;34.50;75.10;;;;;;5048599;28;20175;-70
2022/06/04 16:46:18;;;;;;;23.70;4.50;;;34.70;74.10;;;;;;5050179;28;20230;-71
2022/06/04 16:52:49;;;;;;;26.77;4.32;;;34.20;74.70;;;;;;5051984;28;20056;-72
2022/06/04 16:55:53;;;;;;;23.85;4.55;;;34.00;76.90;;;;;;5052893;28;20510;-72
2022/06/04 16:58:57;;;;;;;17.52;3.78;;;34.00;77.40;;;;;;5052676;28;20064;-72
2022/06/04 17:02:17;;;;;;;20.55;4.18;;;33.60;77.80;;;;;;5051641;28;20515;-72
2022/06/04 17:05:33;;;;;;;24.02;4.50;;;33.40;78.00;;;;;;5051166;28;20044;-73
2022/06/04 17:08:55;;;;;;;22.00;4.57;;;33.20;78.80;;;;;;5052750;28;20040;-72
2022/06/04 17:12:22;;;;;;;20.23;3.65;;;32.80;79.70;;;;;;5052116;28;20077;-72
2022/06/04 17:15:52;;;;;;;25.00;4.20;;;32.40;78.00;;;;;;5051550;28;20040;-71
2022/06/04 17:19:47;;;;;;;20.17;3.95;;;32.30;77.30;;;;;;5051591;28;20052;-72
2022/06/04 17:23:16;;;;;;;16.83;3.80;;;32.30;78.90;;;;;;5044689;28;20510;-72